Time;durP1;ratioP1;P1;durP2;ratioP2;P2;SDS_P1;SDS_P2;PMS_P1;PMS_P2;Temp;Humidity;BMP_temperature;BMP_pressure;BME280_temperature;BME280_humidity;BME280_pressure;Samples;Min_cycle;Max_cycle;Signal;HPM_P1;HPM_P2
2023/12/01 00:01:59;;;;;;;;;;;0.80;64.80;;;;;;4621702;30;114563;-80
2023/12/01 00:04:26;;;;;;;;;;;0.80;64.80;;;;;;4620631;30;114876;-79
2023/12/01 00:06:53;;;;;;;;;;;0.90;64.80;;;;;;4620091;30;116316;-79
2023/12/01 00:09:20;;;;;;;;;;;0.90;64.90;;;;;;4621047;30;114568;-79
2023/12/01 00:11:47;;;;;;;;;;;0.90;64.80;;;;;;4621033;30;114444;-79
2023/12/01 00:14:14;;;;;;;;;;;1.00;64.80;;;;;;4620274;30;114900;-80
2023/12/01 00:16:41;;;;;;;;;;;1.00;64.90;;;;;;4620406;30;115133;-79
2023/12/01 00:19:08;;;;;;;;;;;1.00;65.00;;;;;;4621089;30;114307;-80
2023/12/01 00:21:35;;;;;;;;;;;1.00;65.00;;;;;;4621062;30;114330;-80
2023/12/01 00:24:03;;;;;;;;;;;1.00;64.90;;;;;;4604905;30;115044;-79
2023/12/01 00:26:30;;;;;;;;;;;1.10;65.00;;;;;;4620777;30;114593;-79
2023/12/01 00:28:58;;;;;;;;;;;1.10;65.10;;;;;;4620864;30;114336;-79
2023/12/01 00:31:25;;;;;;;;;;;1.00;65.10;;;;;;4606004;30;114370;-80
2023/12/01 00:33:52;;;;;;;;;;;1.10;65.10;;;;;;4619827;30;115081;-80
2023/12/01 00:36:20;;;;;;;;;;;1.10;65.20;;;;;;4604833;30;114749;-79
2023/12/01 00:38:47;;;;;;;;;;;1.10;65.10;;;;;;4621029;30;114377;-79
2023/12/01 00:41:14;;;;;;;;;;;1.00;65.10;;;;;;4620096;30;114219;-80
2023/12/01 00:43:41;;;;;;;;;;;1.00;65.10;;;;;;4590179;30;115213;-80
2023/12/01 00:46:08;;;;;;;;;;;1.00;65.00;;;;;;4604400;30;114791;-79
2023/12/01 00:48:35;;;;;;;;;;;0.90;65.10;;;;;;4591154;30;114324;-80
2023/12/01 00:51:02;;;;;;;;;;;0.90;65.20;;;;;;4605896;30;114498;-80
2023/12/01 00:53:30;;;;;;;;;;;1.00;65.30;;;;;;4604750;30;115680;-80
2023/12/01 00:55:57;;;;;;;;;;;1.00;65.30;;;;;;4621930;30;114740;-79
2023/12/01 00:58:24;;;;;;;;;;;1.00;65.30;;;;;;4600207;30;114161;-80
2023/12/01 01:00:51;;;;;;;;;;;1.10;65.30;;;;;;4591896;30;114449;-80
2023/12/01 01:03:18;;;;;;;;;;;1.00;65.30;;;;;;4635786;30;116228;-80
2023/12/01 01:05:46;;;;;;;;;;;1.10;65.40;;;;;;4617878;30;114141;-79
2023/12/01 01:08:13;;;;;;;;;;;1.10;65.40;;;;;;4607851;30;114320;-79
2023/12/01 01:10:41;;;;;;;;;;;1.10;65.40;;;;;;4567708;30;114380;-79
2023/12/01 01:13:08;;;;;;;;;;;1.10;65.40;;;;;;4566760;30;115763;-78
2023/12/01 01:15:35;;;;;;;;;;;1.10;65.50;;;;;;4552898;30;118618;-79
2023/12/01 01:18:02;;;;;;;;;;;1.10;65.50;;;;;;4567670;30;114554;-79
2023/12/01 01:20:29;;;;;;;;;;;1.10;65.60;;;;;;4567309;30;114313;-79
2023/12/01 01:22:56;;;;;;;;;;;1.10;65.70;;;;;;4566424;30;114993;-79
2023/12/01 01:25:23;;;;;;;;;;;1.10;65.60;;;;;;4567273;30;114615;-80
2023/12/01 01:27:50;;;;;;;;;;;1.20;65.60;;;;;;4567641;30;114231;-77
2023/12/01 01:30:17;;;;;;;;;;;1.10;65.60;;;;;;4567285;30;114404;-79
2023/12/01 01:32:46;;;;;;;;;;;1.10;65.60;;;;;;4566751;30;115573;-78
2023/12/01 01:35:13;;;;;;;;;;;1.10;65.70;;;;;;4566367;30;115984;-79
2023/12/01 01:37:40;;;;;;;;;;;1.10;65.60;;;;;;4567431;30;114404;-78
2023/12/01 01:40:09;;;;;;;;;;;1.20;65.60;;;;;;4567474;30;114670;-78
2023/12/01 01:42:36;;;;;;;;;;;1.10;65.50;;;;;;4594665;30;115018;-79
2023/12/01 01:45:03;;;;;;;;;;;1.10;65.50;;;;;;4587049;30;114718;-80
2023/12/01 01:47:33;;;;;;;;;;;1.20;65.50;;;;;;4602469;30;114312;-79
2023/12/01 01:50:01;;;;;;;;;;;1.20;65.60;;;;;;4602845;30;114427;-79
2023/12/01 01:52:28;;;;;;;;;;;1.20;65.60;;;;;;4601100;30;115112;-79
2023/12/01 01:54:55;;;;;;;;;;;1.20;65.60;;;;;;4601054;30;114785;-79
2023/12/01 01:57:22;;;;;;;;;;;1.20;65.70;;;;;;4602746;30;114319;-81
2023/12/01 01:59:49;;;;;;;;;;;1.20;65.70;;;;;;4587387;30;114350;-79
2023/12/01 02:02:19;;;;;;;;;;;1.20;65.70;;;;;;4600456;30;116083;-80
2023/12/01 02:04:53;;;;;;;;;;;1.10;65.60;;;;;;4600999;30;114739;-80
2023/12/01 02:07:25;;;;;;;;;;;1.10;65.60;;;;;;4602538;30;114301;-80
2023/12/01 02:09:53;;;;;;;;;;;1.10;65.60;;;;;;4601493;30;114255;-80
2023/12/01 02:12:20;;;;;;;;;;;1.10;65.60;;;;;;4600025;30;114943;-80
2023/12/01 02:14:50;;;;;;;;;;;1.00;65.50;;;;;;4600577;30;115210;-80
2023/12/01 02:17:17;;;;;;;;;;;0.90;65.50;;;;;;4601368;30;114591;-81
2023/12/01 02:19:44;;;;;;;;;;;0.90;65.60;;;;;;4600862;30;114635;-79
2023/12/01 02:22:11;;;;;;;;;;;0.80;65.70;;;;;;4600606;30;114949;-81
2023/12/01 02:24:38;;;;;;;;;;;0.80;65.80;;;;;;4600566;30;115162;-79
2023/12/01 02:27:05;;;;;;;;;;;0.80;65.80;;;;;;4602412;30;114587;-80
2023/12/01 02:29:33;;;;;;;;;;;0.80;65.80;;;;;;4601506;30;114468;-80
2023/12/01 02:32:00;;;;;;;;;;;0.70;65.90;;;;;;4601445;30;115873;-80
2023/12/01 02:34:28;;;;;;;;;;;0.70;65.90;;;;;;4585967;30;114775;-80
2023/12/01 02:36:58;;;;;;;;;;;0.70;65.90;;;;;;4602513;30;114379;-80
2023/12/01 02:39:25;;;;;;;;;;;0.70;65.90;;;;;;4602859;30;114380;-80
2023/12/01 02:41:52;;;;;;;;;;;0.60;65.90;;;;;;4599850;30;114859;-80
2023/12/01 02:44:19;;;;;;;;;;;0.70;66.00;;;;;;4600128;30;114800;-79
2023/12/01 02:46:47;;;;;;;;;;;0.60;66.00;;;;;;4602881;30;114217;-79
2023/12/01 02:49:17;;;;;;;;;;;0.60;66.10;;;;;;4593999;30;114378;-80
2023/12/01 02:51:44;;;;;;;;;;;0.60;66.10;;;;;;4613446;30;114295;-79
2023/12/01 02:54:11;;;;;;;;;;;0.60;66.10;;;;;;4602355;30;114327;-78
2023/12/01 02:56:38;;;;;;;;;;;0.60;66.20;;;;;;4601370;30;114434;-79
2023/12/01 02:59:05;;;;;;;;;;;0.60;66.20;;;;;;4600795;30;114464;-80
2023/12/01 03:01:32;;;;;;;;;;;0.50;66.20;;;;;;4599225;30;117844;-78
2023/12/01 03:04:00;;;;;;;;;;;0.50;66.30;;;;;;4599917;30;115553;-80
2023/12/01 03:06:27;;;;;;;;;;;0.50;66.30;;;;;;4600705;30;114588;-80
2023/12/01 03:08:54;;;;;;;;;;;0.40;66.50;;;;;;4601883;30;114552;-80
2023/12/01 03:11:22;;;;;;;;;;;0.40;66.50;;;;;;4599347;30;116099;-79
2023/12/01 03:13:49;;;;;;;;;;;0.40;66.60;;;;;;4600977;30;114644;-81
2023/12/01 03:16:17;;;;;;;;;;;0.40;66.70;;;;;;4602141;30;114170;-80
2023/12/01 03:18:44;;;;;;;;;;;0.50;66.70;;;;;;4602672;30;114784;-81
2023/12/01 03:21:12;;;;;;;;;;;0.50;66.80;;;;;;4600819;30;114859;-80
2023/12/01 03:23:41;;;;;;;;;;;0.40;67.00;;;;;;4600926;30;114767;-79
2023/12/01 03:26:08;;;;;;;;;;;0.40;67.00;;;;;;4600235;30;114171;-80
2023/12/01 03:28:35;;;;;;;;;;;0.40;67.20;;;;;;4601706;30;114236;-79
2023/12/01 03:31:03;;;;;;;;;;;0.40;67.30;;;;;;4599234;30;116352;-80
2023/12/01 03:33:30;;;;;;;;;;;0.40;67.40;;;;;;4601687;30;114670;-81
2023/12/01 03:35:58;;;;;;;;;;;0.50;67.40;;;;;;4589250;30;114313;-80
2023/12/01 03:38:25;;;;;;;;;;;0.40;67.30;;;;;;4603000;30;114867;-78
2023/12/01 03:40:52;;;;;;;;;;;0.30;67.30;;;;;;4603740;30;115012;-79
2023/12/01 03:43:19;;;;;;;;;;;0.20;67.50;;;;;;4605110;30;115204;-79
2023/12/01 03:45:46;;;;;;;;;;;0.20;67.50;;;;;;4621446;30;114171;-79
2023/12/01 03:48:14;;;;;;;;;;;0.20;67.60;;;;;;4606199;30;114666;-79
2023/12/01 03:50:40;;;;;;;;;;;0.20;67.70;;;;;;4604870;30;115614;-78
2023/12/01 03:53:08;;;;;;;;;;;0.20;67.60;;;;;;4620299;30;114830;-79
2023/12/01 03:55:34;;;;;;;;;;;0.20;67.70;;;;;;4591949;30;114466;-80
2023/12/01 03:58:02;;;;;;;;;;;0.20;67.70;;;;;;4621236;30;114227;-79
2023/12/01 04:00:32;;;;;;;;;;;0.20;67.70;;;;;;4605072;30;115192;-80
2023/12/01 04:03:00;;;;;;;;;;;0.20;67.70;;;;;;4620318;30;114640;-79
2023/12/01 04:05:27;;;;;;;;;;;0.20;67.80;;;;;;4606077;30;114416;-80
2023/12/01 04:07:54;;;;;;;;;;;0.20;68.00;;;;;;4621502;30;114516;-80
2023/12/01 04:10:24;;;;;;;;;;;0.20;67.80;;;;;;4620365;30;115406;-80
2023/12/01 04:12:54;;;;;;;;;;;0.20;67.80;;;;;;4577037;30;117388;-80
2023/12/01 04:15:24;;;;;;;;;;;0.30;67.90;;;;;;4591699;30;114314;-80
2023/12/01 04:17:52;;;;;;;;;;;0.40;67.70;;;;;;4594678;30;114222;-79
2023/12/01 04:20:26;;;;;;;;;;;0.40;67.60;;;;;;4607667;30;114365;-79
2023/12/01 04:22:55;;;;;;;;;;;0.40;67.60;;;;;;4606001;30;114904;-80
2023/12/01 04:25:22;;;;;;;;;;;0.40;67.70;;;;;;4620927;30;114236;-81
2023/12/01 04:27:50;;;;;;;;;;;0.30;67.70;;;;;;4621020;30;114353;-80
2023/12/01 04:30:17;;;;;;;;;;;0.40;67.70;;;;;;4605137;30;114982;-81
2023/12/01 04:32:45;;;;;;;;;;;0.50;67.60;;;;;;4620461;30;114709;-80
2023/12/01 04:35:12;;;;;;;;;;;0.50;67.50;;;;;;4621221;30;114387;-79
2023/12/01 04:37:40;;;;;;;;;;;0.60;67.40;;;;;;4617640;30;114448;-78
2023/12/01 04:40:16;;;;;;;;;;;0.50;67.50;;;;;;4633045;30;114377;-80
2023/12/01 04:42:45;;;;;;;;;;;0.50;67.60;;;;;;4604685;30;115678;-81
2023/12/01 04:45:13;;;;;;;;;;;0.60;67.70;;;;;;4605551;30;114399;-80
2023/12/01 04:47:40;;;;;;;;;;;0.60;67.60;;;;;;4620640;30;114083;-80
2023/12/01 04:50:14;;;;;;;;;;;0.60;67.50;;;;;;4619794;30;115092;-81
2023/12/01 04:52:52;;;;;;;;;;;0.60;67.40;;;;;;4619761;30;114787;-80
2023/12/01 04:55:22;;;;;;;;;;;0.70;67.40;;;;;;4620450;30;114379;-81
2023/12/01 04:57:49;;;;;;;;;;;0.70;67.30;;;;;;4621311;30;114143;-81
2023/12/01 05:00:20;;;;;;;;;;;0.70;67.20;;;;;;4619600;30;115610;-80
2023/12/01 05:02:53;;;;;;;;;;;0.80;67.20;;;;;;4619686;30;114639;-80
2023/12/01 05:05:21;;;;;;;;;;;0.80;67.10;;;;;;4604648;30;114654;-80
2023/12/01 05:07:51;;;;;;;;;;;0.80;67.10;;;;;;4605149;30;114223;-79
2023/12/01 05:10:20;;;;;;;;;;;0.80;67.10;;;;;;4591156;30;115011;-80
2023/12/01 05:12:49;;;;;;;;;;;0.80;67.10;;;;;;4604723;30;114701;-81
2023/12/01 05:15:21;;;;;;;;;;;0.90;67.20;;;;;;4605273;30;114163;-79
2023/12/01 05:17:49;;;;;;;;;;;0.90;67.20;;;;;;4605578;30;114533;-80
2023/12/01 05:20:18;;;;;;;;;;;0.90;67.10;;;;;;4619335;30;115272;-80
2023/12/01 05:22:48;;;;;;;;;;;0.90;67.20;;;;;;4619618;30;114972;-80
2023/12/01 05:25:15;;;;;;;;;;;0.90;67.20;;;;;;4604800;30;114411;-79
2023/12/01 05:27:49;;;;;;;;;;;0.90;67.10;;;;;;4590735;30;114376;-78
2023/12/01 05:30:17;;;;;;;;;;;0.90;67.10;;;;;;4619058;30;115080;-80
2023/12/01 05:32:45;;;;;;;;;;;0.90;67.20;;;;;;4590143;30;114752;-78
2023/12/01 05:35:12;;;;;;;;;;;0.90;67.20;;;;;;4619600;30;114095;-82
2023/12/01 05:37:40;;;;;;;;;;;0.90;67.10;;;;;;4620168;30;115203;-79
2023/12/01 05:40:08;;;;;;;;;;;0.90;67.10;;;;;;4603871;30;115162;-80
2023/12/01 05:42:36;;;;;;;;;;;0.90;67.10;;;;;;4618769;30;114792;-80
2023/12/01 05:45:04;;;;;;;;;;;0.90;67.00;;;;;;4619918;30;114678;-80
2023/12/01 05:47:34;;;;;;;;;;;0.90;66.90;;;;;;4590643;30;114540;-81
2023/12/01 05:50:01;;;;;;;;;;;0.90;67.00;;;;;;4603336;30;116088;-80
2023/12/01 05:52:28;;;;;;;;;;;0.90;67.00;;;;;;4619008;30;115001;-81
2023/12/01 05:54:55;;;;;;;;;;;0.90;67.10;;;;;;4618579;30;114140;-80
2023/12/01 05:57:22;;;;;;;;;;;1.00;67.10;;;;;;4605360;30;114523;-80
2023/12/01 05:59:49;;;;;;;;;;;1.00;67.10;;;;;;4619880;30;114949;-81
2023/12/01 06:02:16;;;;;;;;;;;1.00;67.10;;;;;;4619003;30;114735;-80
2023/12/01 06:04:43;;;;;;;;;;;1.00;67.20;;;;;;4619190;30;114489;-80
2023/12/01 06:07:10;;;;;;;;;;;1.00;67.10;;;;;;4619906;30;114380;-80
2023/12/01 06:09:38;;;;;;;;;;;0.90;67.20;;;;;;4619059;30;115210;-81
2023/12/01 06:12:05;;;;;;;;;;;1.00;67.30;;;;;;4613297;30;116007;-81
2023/12/01 06:14:33;;;;;;;;;;;0.90;67.20;;;;;;4618280;30;114530;-80
2023/12/01 06:17:01;;;;;;;;;;;0.80;67.30;;;;;;4616764;30;114867;-80
2023/12/01 06:19:28;;;;;;;;;;;0.70;67.40;;;;;;4615461;30;115847;-81
2023/12/01 06:21:58;;;;;;;;;;;0.70;67.80;;;;;;4615490;30;115298;-79
2023/12/01 06:24:26;;;;;;;;;;;0.60;67.90;;;;;;4617801;30;114615;-78
2023/12/01 06:26:53;;;;;;;;;;;0.60;68.10;;;;;;4619622;30;114749;-80
2023/12/01 06:29:21;;;;;;;;;;;0.60;68.10;;;;;;4636357;30;114574;-82
2023/12/01 06:31:48;;;;;;;;;;;0.70;68.00;;;;;;4621797;30;114361;-80
2023/12/01 06:34:16;;;;;;;;;;;0.70;67.90;;;;;;4610563;30;115041;-81
2023/12/01 06:36:43;;;;;;;;;;;0.70;67.90;;;;;;4610548;30;114279;-79
2023/12/01 06:39:12;;;;;;;;;;;0.70;68.00;;;;;;4617232;30;116335;-81
2023/12/01 06:41:42;;;;;;;;;;;0.70;68.20;;;;;;4616468;30;114923;-82
2023/12/01 06:44:09;;;;;;;;;;;0.60;68.10;;;;;;4617003;30;114699;-80
2023/12/01 06:46:39;;;;;;;;;;;0.60;68.30;;;;;;4617852;30;114694;-80
2023/12/01 06:49:08;;;;;;;;;;;0.70;68.20;;;;;;4608763;30;115058;-80
2023/12/01 06:51:35;;;;;;;;;;;0.60;68.30;;;;;;4617302;30;114624;-81
2023/12/01 06:54:02;;;;;;;;;;;0.60;68.40;;;;;;4609461;30;114612;-81
2023/12/01 06:56:29;;;;;;;;;;;0.60;68.30;;;;;;4609685;30;114508;-81
2023/12/01 06:58:56;;;;;;;;;;;0.60;68.30;;;;;;4594714;30;114372;-80
2023/12/01 07:01:23;;;;;;;;;;;0.60;68.40;;;;;;4617115;30;114679;-79
2023/12/01 07:03:50;;;;;;;;;;;0.60;68.50;;;;;;4608436;30;114598;-80
2023/12/01 07:06:19;;;;;;;;;;;0.70;68.50;;;;;;4590263;30;114195;-79
2023/12/01 07:08:46;;;;;;;;;;;0.80;68.30;;;;;;4620582;30;115120;-80
2023/12/01 07:11:12;;;;;;;;;;;0.90;68.10;;;;;;4620641;30;114687;-81
2023/12/01 07:13:40;;;;;;;;;;;0.90;68.00;;;;;;4605045;30;114530;-82
2023/12/01 07:16:09;;;;;;;;;;;0.90;67.80;;;;;;4606687;30;114988;-80
2023/12/01 07:18:40;;;;;;;;;;;1.00;67.80;;;;;;4591524;30;117728;-79
2023/12/01 07:21:09;;;;;;;;;;;1.00;67.70;;;;;;4592428;30;114643;-79
2023/12/01 07:23:41;;;;;;;;;;;1.10;67.70;;;;;;4592585;30;114178;-79
2023/12/01 07:26:10;;;;;;;;;;;1.10;67.60;;;;;;4606761;30;114618;-79
2023/12/01 07:28:37;;;;;;;;;;;1.10;67.60;;;;;;4621126;30;114897;-80
2023/12/01 07:31:04;;;;;;;;;;;1.10;67.60;;;;;;4605420;30;115025;-79
2023/12/01 07:33:32;;;;;;;;;;;1.20;67.60;;;;;;4605917;30;114546;-79
2023/12/01 07:35:59;;;;;;;;;;;1.20;67.70;;;;;;4607559;30;114504;-79
2023/12/01 07:38:26;;;;;;;;;;;1.20;67.70;;;;;;4607509;30;115565;-81
2023/12/01 07:40:53;;;;;;;;;;;1.20;67.80;;;;;;4620819;30;114679;-80
2023/12/01 07:43:21;;;;;;;;;;;1.30;67.70;;;;;;4620630;30;116563;-80
2023/12/01 07:45:49;;;;;;;;;;;1.30;67.60;;;;;;4621769;30;114285;-79
2023/12/01 07:48:16;;;;;;;;;;;1.30;67.50;;;;;;4620389;30;115047;-79
2023/12/01 07:50:45;;;;;;;;;;;1.20;67.60;;;;;;4605149;30;117795;-79
2023/12/01 07:53:16;;;;;;;;;;;1.30;67.70;;;;;;4621519;30;114404;-78
2023/12/01 07:55:43;;;;;;;;;;;1.40;67.90;;;;;;4621409;30;114461;-79
2023/12/01 07:58:11;;;;;;;;;;;1.40;67.80;;;;;;4604298;30;115618;-79
2023/12/01 08:00:40;;;;;;;;;;;1.50;67.70;;;;;;4620653;30;114621;-80
2023/12/01 08:03:08;;;;;;;;;;;1.50;67.60;;;;;;4621334;30;114203;-78
2023/12/01 08:05:39;;;;;;;;;;;1.50;67.50;;;;;;4621145;30;115036;-80
2023/12/01 08:08:06;;;;;;;;;;;1.60;67.40;;;;;;4620121;30;114985;-80
2023/12/01 08:10:33;;;;;;;;;;;1.60;67.40;;;;;;4604504;30;114912;-79
2023/12/01 08:13:00;;;;;;;;;;;1.50;67.30;;;;;;4620937;30;114608;-80
2023/12/01 08:15:28;;;;;;;;;;;1.50;67.50;;;;;;4621401;30;114644;-79
2023/12/01 08:17:59;;;;;;;;;;;1.60;67.50;;;;;;4604400;30;115122;-81
2023/12/01 08:20:30;;;;;;;;;;;1.60;67.40;;;;;;4604785;30;114982;-80
2023/12/01 08:22:59;;;;;;;;;;;1.60;67.40;;;;;;4638432;30;113985;-81
2023/12/01 08:25:28;;;;;;;;;;;1.70;67.40;;;;;;4599590;30;114474;-79
2023/12/01 08:27:55;;;;;;;;;;;1.70;67.30;;;;;;4621063;30;115051;-81
2023/12/01 08:30:22;;;;;;;;;;;1.70;67.20;;;;;;4605393;30;114974;-80
2023/12/01 08:32:53;;;;;;;;;;;1.70;67.10;;;;;;4591418;30;114291;-80
2023/12/01 08:35:21;;;;;;;;;;;1.70;67.10;;;;;;4605380;30;114276;-80
2023/12/01 08:37:51;;;;;;;;;;;1.70;67.20;;;;;;4590580;30;114870;-79
2023/12/01 08:40:17;;;;;;;;;;;1.70;67.20;;;;;;4606185;30;117276;-78
2023/12/01 08:42:45;;;;;;;;;;;1.70;67.30;;;;;;4621682;30;116386;-79
2023/12/01 08:45:12;;;;;;;;;;;1.60;67.20;;;;;;4638168;30;114151;-80
2023/12/01 08:47:40;;;;;;;;;;;1.70;67.30;;;;;;4630851;30;115094;-81
2023/12/01 08:50:07;;;;;;;;;;;1.70;67.40;;;;;;4619545;30;114553;-81
2023/12/01 08:52:37;;;;;;;;;;;1.70;67.40;;;;;;4587410;30;115849;-80
2023/12/01 08:55:05;;;;;;;;;;;1.70;67.50;;;;;;4621029;30;114331;-78
2023/12/01 08:57:33;;;;;;;;;;;1.80;67.50;;;;;;4589535;30;115301;-80
2023/12/01 09:00:00;;;;;;;;;;;1.80;67.50;;;;;;4618796;30;114612;-79
2023/12/01 09:02:27;;;;;;;;;;;1.80;67.50;;;;;;4617589;30;114664;-81
2023/12/01 09:04:54;;;;;;;;;;;1.90;67.50;;;;;;4619342;30;114888;-79
2023/12/01 09:07:21;;;;;;;;;;;1.90;67.50;;;;;;4613542;30;114937;-78
2023/12/01 09:09:55;;;;;;;;;;;1.90;67.40;;;;;;4628541;30;115906;-80
2023/12/01 09:12:22;;;;;;;;;;;2.00;67.50;;;;;;4626068;30;114544;-80
2023/12/01 09:14:50;;;;;;;;;;;2.00;67.40;;;;;;4604830;30;114592;-81
2023/12/01 09:17:22;;;;;;;;;;;2.00;67.40;;;;;;4621539;30;115119;-78
2023/12/01 09:19:56;;;;;;;;;;;2.10;67.40;;;;;;4625374;30;114643;-80
2023/12/01 09:22:24;;;;;;;;;;;2.10;67.30;;;;;;4617748;30;114492;-81
2023/12/01 09:24:51;;;;;;;;;;;2.10;67.30;;;;;;4621454;30;115012;-79
2023/12/01 09:27:19;;;;;;;;;;;2.10;67.20;;;;;;4602637;30;116258;-79
2023/12/01 09:29:46;;;;;;;;;;;2.10;67.20;;;;;;4600793;30;116412;-80
2023/12/01 09:32:14;;;;;;;;;;;2.10;67.20;;;;;;4594581;30;114507;-80
2023/12/01 09:34:41;;;;;;;;;;;2.10;67.10;;;;;;4610482;30;115103;-80
2023/12/01 09:37:08;;;;;;;;;;;2.00;67.10;;;;;;4611605;30;115017;-80
2023/12/01 09:39:35;;;;;;;;;;;2.10;67.00;;;;;;4618691;30;114626;-79
2023/12/01 09:42:05;;;;;;;;;;;2.10;67.00;;;;;;4616743;30;114551;-81
2023/12/01 09:44:33;;;;;;;;;;;2.10;67.00;;;;;;4584269;30;115291;-81
2023/12/01 09:47:00;;;;;;;;;;;2.10;67.10;;;;;;4570152;30;118470;-81
2023/12/01 09:49:28;;;;;;;;;;;2.10;67.10;;;;;;4584416;30;114682;-81
2023/12/01 09:51:55;;;;;;;;;;;2.20;67.10;;;;;;4605126;30;114500;-79
2023/12/01 09:54:22;;;;;;;;;;;2.20;67.00;;;;;;4606541;30;114407;-80
2023/12/01 09:56:51;;;;;;;;;;;2.20;67.00;;;;;;4619401;30;115428;-81
2023/12/01 09:59:18;;;;;;;;;;;2.20;67.00;;;;;;4591611;30;117151;-79
2023/12/01 10:01:47;;;;;;;;;;;2.20;66.90;;;;;;4605519;30;114619;-80
2023/12/01 10:04:14;;;;;;;;;;;2.20;66.90;;;;;;4618613;30;114619;-80
2023/12/01 10:06:41;;;;;;;;;;;2.20;66.90;;;;;;4617206;30;115896;-80
2023/12/01 10:09:10;;;;;;;;;;;2.20;66.90;;;;;;4617628;30;117140;-80
2023/12/01 10:11:37;;;;;;;;;;;2.30;66.90;;;;;;4618659;30;114602;-79
2023/12/01 10:14:13;;;;;;;;;;;2.30;66.90;;;;;;4599140;30;114631;-80
2023/12/01 10:16:40;;;;;;;;;;;2.30;66.90;;;;;;4632789;30;114213;-81
2023/12/01 10:19:07;;;;;;;;;;;2.20;66.90;;;;;;4625137;30;114377;-81
2023/12/01 10:21:40;;;;;;;;;;;2.30;66.90;;;;;;4605324;30;114738;-82
2023/12/01 10:24:16;;;;;;;;;;;2.30;66.80;;;;;;4588587;30;114909;-81
2023/12/01 10:26:43;;;;;;;;;;;2.20;66.80;;;;;;4587561;30;115097;-80
2023/12/01 10:29:24;;;;;;;;;;;2.30;66.70;;;;;;4617193;30;114637;-79
2023/12/01 10:31:52;;;;;;;;;;;2.20;66.80;;;;;;4602814;30;114392;-80
2023/12/01 10:34:19;;;;;;;;;;;2.30;66.90;;;;;;4588827;30;114587;-81
2023/12/01 10:36:47;;;;;;;;;;;2.30;66.90;;;;;;4584485;30;119142;-79
2023/12/01 10:39:17;;;;;;;;;;;2.30;66.90;;;;;;4585065;30;114676;-80
2023/12/01 10:41:44;;;;;;;;;;;2.30;66.90;;;;;;4600112;30;114678;-78
2023/12/01 10:44:13;;;;;;;;;;;2.40;66.90;;;;;;4585881;30;115990;-79
2023/12/01 10:46:40;;;;;;;;;;;2.40;66.90;;;;;;4600032;30;114956;-80
2023/12/01 10:49:07;;;;;;;;;;;2.40;66.80;;;;;;4584901;30;114668;-79
2023/12/01 10:51:38;;;;;;;;;;;2.30;66.80;;;;;;4602889;30;114742;-80
2023/12/01 10:54:05;;;;;;;;;;;2.20;67.00;;;;;;4603002;30;114425;-79
2023/12/01 10:56:32;;;;;;;;;;;2.20;67.10;;;;;;4592802;30;114986;-81
2023/12/01 10:58:59;;;;;;;;;;;2.20;67.30;;;;;;4618141;30;114812;-81
2023/12/01 11:01:27;;;;;;;;;;;2.20;67.40;;;;;;4603470;30;114371;-79
2023/12/01 11:03:55;;;;;;;;;;;2.30;67.30;;;;;;4602414;30;114488;-80
2023/12/01 11:06:32;;;;;;;;;;;2.40;67.20;;;;;;4573948;30;118228;-80
2023/12/01 11:09:08;;;;;;;;;;;2.40;67.00;;;;;;4606732;30;114715;-81
2023/12/01 11:11:50;;;;;;;;;;;2.40;66.80;;;;;;4615808;30;114368;-79
2023/12/01 11:14:19;;;;;;;;;;;2.40;66.80;;;;;;4618325;30;114531;-81
2023/12/01 11:16:49;;;;;;;;;;;2.40;66.80;;;;;;4616745;30;115118;-81
2023/12/01 11:19:19;;;;;;;;;;;2.40;66.80;;;;;;4601341;30;114667;-80
2023/12/01 11:21:49;;;;;;;;;;;2.40;66.80;;;;;;4602130;30;114755;-81
2023/12/01 11:24:26;;;;;;;;;;;2.40;66.80;;;;;;4587399;30;114733;-79
2023/12/01 11:26:54;;;;;;;;;;;2.30;66.80;;;;;;4601114;30;115254;-81
2023/12/01 11:29:28;;;;;;;;;;;2.30;66.90;;;;;;4616388;30;114834;-80
2023/12/01 11:31:59;;;;;;;;;;;2.40;66.80;;;;;;4617295;30;114721;-79
2023/12/01 11:34:26;;;;;;;;;;;2.30;66.80;;;;;;4617907;30;114418;-81
2023/12/01 11:36:54;;;;;;;;;;;2.20;66.80;;;;;;4616705;30;115264;-81
2023/12/01 11:39:23;;;;;;;;;;;2.10;66.80;;;;;;4616490;30;114698;-80
2023/12/01 11:41:54;;;;;;;;;;;1.90;66.90;;;;;;4584256;30;114682;-80
2023/12/01 11:44:24;;;;;;;;;;;1.70;67.10;;;;;;4605459;30;114678;-80
2023/12/01 11:46:58;;;;;;;;;;;1.70;67.30;;;;;;4602243;30;117738;-79
2023/12/01 11:49:31;;;;;;;;;;;1.60;67.40;;;;;;4600128;30;114653;-80
2023/12/01 11:51:59;;;;;;;;;;;1.60;67.60;;;;;;4600352;30;114568;-81
2023/12/01 11:54:26;;;;;;;;;;;1.50;67.50;;;;;;4601431;30;114382;-81
2023/12/01 11:56:55;;;;;;;;;;;1.40;67.50;;;;;;4601250;30;118123;-80
2023/12/01 11:59:24;;;;;;;;;;;1.30;67.60;;;;;;4601587;30;114705;-81
2023/12/01 12:01:52;;;;;;;;;;;1.20;67.80;;;;;;4602723;30;114239;-79
2023/12/01 12:04:19;;;;;;;;;;;1.20;67.80;;;;;;4603404;30;114390;-79
2023/12/01 12:06:46;;;;;;;;;;;1.20;67.90;;;;;;4600692;30;115484;-80
2023/12/01 12:09:19;;;;;;;;;;;1.30;68.00;;;;;;4603008;30;114690;-80
2023/12/01 12:11:48;;;;;;;;;;;1.40;68.10;;;;;;4611038;30;114602;-80
2023/12/01 12:14:16;;;;;;;;;;;1.40;68.10;;;;;;4622221;30;114080;-80
2023/12/01 12:16:44;;;;;;;;;;;1.50;68.00;;;;;;4601950;30;115188;-81
2023/12/01 12:19:11;;;;;;;;;;;1.60;67.90;;;;;;4587103;30;118513;-80
2023/12/01 12:21:39;;;;;;;;;;;1.60;67.80;;;;;;4602279;30;114495;-80
2023/12/01 12:24:06;;;;;;;;;;;1.60;67.70;;;;;;4601327;30;114679;-81
2023/12/01 12:26:33;;;;;;;;;;;1.50;67.80;;;;;;4600273;30;117061;-81
2023/12/01 12:29:02;;;;;;;;;;;1.40;68.00;;;;;;4602414;30;114717;-81
2023/12/01 12:31:32;;;;;;;;;;;1.40;68.00;;;;;;4602582;30;117929;-80
2023/12/01 12:33:59;;;;;;;;;;;1.30;68.10;;;;;;4586302;30;114545;-81
2023/12/01 12:36:30;;;;;;;;;;;1.30;68.10;;;;;;4591244;30;114981;-80
2023/12/01 12:38:58;;;;;;;;;;;1.30;68.10;;;;;;4600920;30;115364;-81
2023/12/01 12:41:25;;;;;;;;;;;1.40;68.30;;;;;;4601418;30;114694;-81
2023/12/01 12:43:53;;;;;;;;;;;1.40;68.30;;;;;;4601661;30;114632;-81
2023/12/01 12:46:20;;;;;;;;;;;1.50;68.30;;;;;;4601929;30;115382;-80
2023/12/01 12:48:47;;;;;;;;;;;1.60;68.20;;;;;;4601175;30;114659;-80
2023/12/01 12:51:18;;;;;;;;;;;1.50;68.20;;;;;;4601418;30;114837;-80
2023/12/01 12:53:46;;;;;;;;;;;1.60;68.30;;;;;;4612279;30;114693;-79
2023/12/01 12:56:13;;;;;;;;;;;1.60;68.30;;;;;;4602518;30;115838;-80
2023/12/01 12:58:41;;;;;;;;;;;1.60;68.30;;;;;;4602335;30;114632;-79
2023/12/01 13:01:09;;;;;;;;;;;1.60;68.20;;;;;;4602767;30;114397;-81
2023/12/01 13:03:37;;;;;;;;;;;1.60;68.20;;;;;;4602274;30;114313;-81
2023/12/01 13:06:04;;;;;;;;;;;1.50;68.30;;;;;;4600261;30;114643;-81
2023/12/01 13:08:34;;;;;;;;;;;1.50;68.30;;;;;;4601032;30;114869;-80
2023/12/01 13:11:02;;;;;;;;;;;1.60;68.40;;;;;;4601182;30;114493;-80
2023/12/01 13:13:29;;;;;;;;;;;1.60;68.50;;;;;;4588025;30;114660;-81
2023/12/01 13:15:57;;;;;;;;;;;1.50;68.50;;;;;;4600566;30;115001;-81
2023/12/01 13:18:25;;;;;;;;;;;1.60;68.60;;;;;;4600997;30;114757;-81
2023/12/01 13:20:53;;;;;;;;;;;1.50;68.50;;;;;;4600744;30;114592;-79
2023/12/01 13:23:20;;;;;;;;;;;1.50;68.50;;;;;;4584765;30;114408;-81
2023/12/01 13:25:48;;;;;;;;;;;1.50;68.60;;;;;;4598264;30;114973;-80
2023/12/01 13:28:15;;;;;;;;;;;1.50;68.70;;;;;;4599616;30;114714;-82
2023/12/01 13:30:42;;;;;;;;;;;1.40;68.80;;;;;;4601137;30;114355;-79
2023/12/01 13:33:09;;;;;;;;;;;1.40;68.80;;;;;;4601082;30;114400;-81
2023/12/01 13:35:36;;;;;;;;;;;1.30;68.80;;;;;;4599205;30;115542;-80
2023/12/01 13:38:03;;;;;;;;;;;1.30;69.00;;;;;;4599116;30;114858;-80
2023/12/01 13:40:30;;;;;;;;;;;1.30;69.00;;;;;;4600532;30;114777;-81
2023/12/01 13:42:58;;;;;;;;;;;1.40;69.10;;;;;;4616403;30;114643;-79
2023/12/01 13:45:25;;;;;;;;;;;1.40;69.10;;;;;;4601697;30;115051;-80
2023/12/01 13:47:53;;;;;;;;;;;1.40;69.00;;;;;;4586105;30;114735;-79
2023/12/01 13:50:21;;;;;;;;;;;1.40;68.90;;;;;;4590994;30;114592;-81
2023/12/01 13:52:48;;;;;;;;;;;1.30;68.90;;;;;;4603745;30;114475;-81
2023/12/01 13:55:15;;;;;;;;;;;1.30;68.90;;;;;;4574421;30;117527;-79
2023/12/01 13:57:45;;;;;;;;;;;1.20;69.10;;;;;;4602986;30;114653;-81
2023/12/01 14:00:15;;;;;;;;;;;1.20;69.20;;;;;;4619087;30;114458;-80
2023/12/01 14:02:44;;;;;;;;;;;1.20;69.30;;;;;;4619319;30;114724;-84
2023/12/01 14:05:11;;;;;;;;;;;1.20;69.30;;;;;;4635262;30;115474;-80
2023/12/01 14:07:38;;;;;;;;;;;1.30;69.30;;;;;;4627279;30;114496;-81
2023/12/01 14:10:08;;;;;;;;;;;1.30;69.40;;;;;;4603165;30;114526;-80
2023/12/01 14:12:35;;;;;;;;;;;1.40;69.30;;;;;;4590090;30;114476;-82
2023/12/01 14:15:03;;;;;;;;;;;1.50;69.30;;;;;;4617188;30;115661;-82
2023/12/01 14:17:30;;;;;;;;;;;1.50;69.10;;;;;;4615951;30;116340;-82
2023/12/01 14:19:58;;;;;;;;;;;1.40;68.80;;;;;;4618631;30;114626;-82
2023/12/01 14:22:25;;;;;;;;;;;1.30;68.90;;;;;;4589722;30;114719;-80